Time;durP1;ratioP1;P1;durP2;ratioP2;P2;SDS_P1;SDS_P2;PMS_P1;PMS_P2;Temp;Humidity;BMP_temperature;BMP_pressure;BME280_temperature;BME280_humidity;BME280_pressure;Samples;Min_cycle;Max_cycle;Signal;HPM_P1;HPM_P2
2022/07/16 00:01:22;;;;;;;2.85;0.43;;;;;;;20.74;56.40;101913.31;7386477;19;20018;-65
2022/07/16 00:01:49;;;;;;;1.13;0.40;;;;;;;20.67;56.90;101911.59;7386362;19;20014;-63
2022/07/16 00:04:16;;;;;;;1.02;0.40;;;;;;;20.63;56.94;101910.31;7386786;19;20083;-62
2022/07/16 00:06:44;;;;;;;1.10;0.40;;;;;;;20.62;57.19;101906.00;7384629;19;20010;-62
2022/07/16 00:09:12;;;;;;;1.02;0.40;;;;;;;20.58;57.18;101921.59;7382756;19;20376;-62
2022/07/16 00:11:39;;;;;;;1.50;0.50;;;;;;;20.56;57.36;101920.97;7384441;19;20101;-62
2022/07/16 00:14:05;;;;;;;4.25;0.50;;;;;;;20.53;57.24;101921.34;7384173;19;20014;-62
2022/07/16 00:16:32;;;;;;;1.40;0.40;;;;;;;20.54;57.04;101917.63;7385209;19;20349;-63
2022/07/16 00:19:19;;;;;;;1.83;0.50;;;;;;;20.52;57.23;101917.00;7387353;19;20038;-62
2022/07/16 00:21:49;;;;;;;1.13;0.50;;;;;;;20.47;57.29;101912.22;7383442;19;20014;-62
2022/07/16 00:24:16;;;;;;;1.38;0.60;;;;;;;20.49;57.41;101922.75;7385034;19;20523;-62
2022/07/16 00:26:43;;;;;;;1.10;0.40;;;;;;;20.47;57.48;101922.91;7384913;19;20206;-62
2022/07/16 00:29:11;;;;;;;1.95;0.50;;;;;;;20.47;57.33;101922.91;7382679;19;20011;-63
2022/07/16 00:31:38;;;;;;;1.02;0.40;;;;;;;20.48;57.20;101913.88;7385404;19;20027;-62
2022/07/16 00:34:09;;;;;;;1.55;0.40;;;;;;;20.48;57.40;101919.22;7386200;19;20090;-63
2022/07/16 00:36:37;;;;;;;0.80;0.47;;;;;;;20.45;57.05;101927.66;7384432;19;20074;-63
2022/07/16 00:39:06;;;;;;;1.70;0.30;;;;;;;20.43;57.37;101923.50;7382308;19;20021;-62
2022/07/16 00:41:34;;;;;;;2.65;0.40;;;;;;;20.41;57.11;101925.53;7383693;19;20047;-63
2022/07/16 00:44:07;;;;;;;0.57;0.28;;;;;;;20.39;56.97;101935.59;7384373;19;20019;-63
2022/07/16 00:46:36;;;;;;;2.55;0.30;;;;;;;20.37;57.13;101935.78;7385571;19;20450;-63
2022/07/16 00:49:03;;;;;;;1.63;0.40;;;;;;;20.32;57.60;101935.50;7387294;19;20078;-63
2022/07/16 00:51:30;;;;;;;0.60;0.30;;;;;;;20.28;57.54;101939.56;7384098;19;20031;-61
2022/07/16 00:53:58;;;;;;;1.67;0.30;;;;;;;20.24;57.78;101932.09;7385369;19;20499;-62
2022/07/16 00:56:25;;;;;;;1.25;0.30;;;;;;;20.22;57.92;101944.81;7384114;19;20014;-62
2022/07/16 00:58:54;;;;;;;1.45;0.40;;;;;;;20.21;58.26;101938.69;7384792;19;20014;-61
2022/07/16 01:01:22;;;;;;;1.63;0.40;;;;;;;20.19;57.97;101940.69;7385166;19;20025;-62
2022/07/16 01:03:49;;;;;;;2.17;0.50;;;;;;;20.15;58.43;101938.59;7386068;19;20010;-63
2022/07/16 01:06:16;;;;;;;1.73;0.35;;;;;;;20.13;58.30;101933.44;7381126;19;20021;-62
2022/07/16 01:08:46;;;;;;;1.92;0.30;;;;;;;20.07;58.52;101931.50;7382753;19;20015;-65
2022/07/16 01:11:18;;;;;;;1.45;0.30;;;;;;;20.02;58.63;101928.56;7382731;19;20745;-66
2022/07/16 01:13:47;;;;;;;1.23;0.30;;;;;;;19.96;58.95;101932.81;7382517;19;20029;-64
2022/07/16 01:16:14;;;;;;;1.67;0.38;;;;;;;19.97;59.10;101930.97;7383045;19;20014;-65
2022/07/16 01:18:47;;;;;;;1.27;0.50;;;;;;;19.92;59.28;101928.84;7384838;19;20437;-65
2022/07/16 01:21:15;;;;;;;2.45;0.40;;;;;;;19.91;59.27;101942.41;7380772;19;20010;-65
2022/07/16 01:23:45;;;;;;;1.45;0.40;;;;;;;19.90;59.38;101936.25;7382876;19;20097;-65
2022/07/16 01:26:13;;;;;;;2.42;0.50;;;;;;;19.82;59.50;101930.16;7383926;19;20038;-65
2022/07/16 01:28:40;;;;;;;1.23;0.30;;;;;;;19.82;59.75;101936.34;7385014;19;20033;-64
2022/07/16 01:31:09;;;;;;;2.70;0.20;;;;;;;19.81;59.62;101941.88;7383304;19;20018;-65
2022/07/16 01:33:39;;;;;;;2.25;0.60;;;;;;;19.81;59.68;101939.22;7384713;19;20363;-64
2022/07/16 01:36:11;;;;;;;1.00;0.22;;;;;;;19.76;60.11;101939.75;7377092;19;20569;-65
2022/07/16 01:38:41;;;;;;;1.08;0.30;;;;;;;19.73;60.34;101940.13;7382637;19;20042;-65
2022/07/16 01:41:08;;;;;;;1.30;0.40;;;;;;;19.70;60.11;101945.00;7382723;19;20011;-67
2022/07/16 01:43:35;;;;;;;1.20;0.40;;;;;;;19.71;60.27;101950.16;7384654;19;20021;-65
2022/07/16 01:46:04;;;;;;;1.02;0.40;;;;;;;19.66;60.64;101949.88;7382304;19;20499;-67
2022/07/16 01:48:31;;;;;;;1.50;0.30;;;;;;;19.66;60.46;101952.53;7382975;19;20022;-65
2022/07/16 01:50:59;;;;;;;0.90;0.50;;;;;;;19.67;60.19;101948.03;7384202;19;20010;-62
2022/07/16 01:53:28;;;;;;;1.58;0.40;;;;;;;19.64;60.25;101942.06;7379128;19;20014;-61
2022/07/16 01:55:55;;;;;;;1.35;0.38;;;;;;;19.62;60.50;101951.25;7384081;19;20042;-61
2022/07/16 01:58:34;;;;;;;1.17;0.32;;;;;;;19.60;60.79;101947.97;7382039;19;20015;-62
2022/07/16 02:01:01;;;;;;;3.55;0.50;;;;;;;19.56;60.89;101952.00;7381915;19;20011;-62
2022/07/16 02:03:27;;;;;;;1.45;0.40;;;;;;;19.54;60.84;101946.03;7384529;19;20014;-63
2022/07/16 02:06:01;;;;;;;1.00;0.30;;;;;;;19.50;61.27;101940.25;7383491;19;20122;-62
2022/07/16 02:08:28;;;;;;;2.00;0.40;;;;;;;19.47;61.24;101948.59;7384145;19;20125;-62
2022/07/16 02:10:55;;;;;;;1.25;0.38;;;;;;;19.46;61.20;101949.59;7381437;19;20018;-62
2022/07/16 02:13:22;;;;;;;1.77;0.40;;;;;;;19.43;61.49;101954.44;7383177;19;20031;-62
2022/07/16 02:15:49;;;;;;;0.85;0.30;;;;;;;19.41;61.86;101961.81;7382141;19;20392;-62
2022/07/16 02:18:15;;;;;;;1.70;0.40;;;;;;;19.40;61.72;101966.31;7384594;19;20011;-61
2022/07/16 02:20:43;;;;;;;1.10;0.30;;;;;;;19.38;61.96;101964.84;7381850;19;20352;-61
2022/07/16 02:23:10;;;;;;;1.70;0.30;;;;;;;19.38;62.18;101957.69;7378851;19;20014;-61
2022/07/16 02:25:36;;;;;;;1.50;0.30;;;;;;;19.37;61.84;101955.19;7380847;19;20322;-64
2022/07/16 02:28:06;;;;;;;0.68;0.30;;;;;;;19.33;62.01;101957.41;7383867;19;20025;-66
2022/07/16 02:30:38;;;;;;;1.42;0.30;;;;;;;19.30;61.97;101960.41;7382766;19;20014;-64
2022/07/16 02:33:07;;;;;;;1.30;0.30;;;;;;;19.30;62.19;101960.41;7384107;19;20022;-62
2022/07/16 02:35:34;;;;;;;0.88;0.40;;;;;;;19.32;62.31;101962.91;7389352;19;20306;-62
2022/07/16 02:38:02;;;;;;;0.80;0.30;;;;;;;19.26;62.43;101952.94;7387483;19;20141;-62
2022/07/16 02:40:29;;;;;;;1.38;0.40;;;;;;;19.27;62.58;101959.94;7387601;19;20017;-62
2022/07/16 02:42:56;;;;;;;2.38;0.40;;;;;;;19.28;62.29;101953.59;7387502;19;20043;-65
2022/07/16 02:45:23;;;;;;;1.00;0.40;;;;;;;19.29;62.31;101953.44;7390757;19;20728;-65
2022/07/16 02:48:07;;;;;;;2.15;0.40;;;;;;;19.32;62.44;101960.22;7390234;19;20010;-65
2022/07/16 02:50:35;;;;;;;2.35;0.30;;;;;;;19.30;62.30;101956.94;7389560;19;20519;-65
2022/07/16 02:53:02;;;;;;;2.00;0.30;;;;;;;19.30;62.53;101959.59;7389911;19;20016;-65
2022/07/16 02:55:29;;;;;;;1.17;0.38;;;;;;;19.32;63.07;101966.41;7387675;19;20018;-66
2022/07/16 02:57:56;;;;;;;0.70;0.30;;;;;;;19.29;62.51;101966.78;7388834;19;20355;-65
2022/07/16 03:00:24;;;;;;;0.80;0.40;;;;;;;19.27;62.50;101965.28;7386936;19;20019;-65
2022/07/16 03:02:52;;;;;;;1.98;0.40;;;;;;;19.28;62.78;101973.13;7389087;19;20018;-67
2022/07/16 03:05:19;;;;;;;1.58;0.40;;;;;;;19.28;63.13;101972.28;7389586;19;20601;-65
2022/07/16 03:07:47;;;;;;;0.88;0.40;;;;;;;19.28;62.91;101972.28;7387703;19;20085;-66
2022/07/16 03:10:15;;;;;;;2.15;0.40;;;;;;;19.25;63.01;101976.13;7387681;19;20014;-65
2022/07/16 03:12:42;;;;;;;1.42;0.40;;;;;;;19.22;63.23;101972.00;7387184;19;20019;-66
2022/07/16 03:15:13;;;;;;;1.88;0.73;;;;;;;19.12;63.15;101970.59;7387603;19;20025;-64
2022/07/16 03:17:40;;;;;;;1.95;0.40;;;;;;;19.09;63.19;101969.13;7388809;19;20015;-65
2022/07/16 03:20:08;;;;;;;1.10;0.40;;;;;;;19.06;63.49;101972.16;7388180;19;20011;-65
2022/07/16 03:22:35;;;;;;;1.30;0.38;;;;;;;19.05;63.85;101975.00;7387066;19;20131;-65
2022/07/16 03:25:02;;;;;;;0.85;0.30;;;;;;;19.03;63.82;101974.34;7387988;19;20010;-65
2022/07/16 03:27:29;;;;;;;1.52;0.35;;;;;;;19.05;64.18;101977.66;7388472;19;20021;-64
2022/07/16 03:29:56;;;;;;;2.20;0.40;;;;;;;19.02;63.72;101973.53;7387396;19;20097;-66
2022/07/16 03:32:23;;;;;;;1.42;0.40;;;;;;;18.96;63.93;101968.91;7388560;19;20018;-67
2022/07/16 03:34:50;;;;;;;1.30;0.43;;;;;;;18.94;64.35;101970.94;7386978;19;20014;-63
2022/07/16 03:37:17;;;;;;;1.42;0.40;;;;;;;18.90;64.33;101960.78;7386892;19;20024;-63
2022/07/16 03:39:44;;;;;;;2.30;0.40;;;;;;;18.89;64.19;101957.31;7387617;19;20363;-63
2022/07/16 03:42:10;;;;;;;1.65;0.40;;;;;;;18.85;64.39;101955.97;7384884;19;20345;-62
2022/07/16 03:44:37;;;;;;;2.22;0.43;;;;;;;18.83;64.43;101955.34;7383861;19;20011;-63
2022/07/16 03:47:04;;;;;;;1.30;0.50;;;;;;;18.83;64.83;101957.19;7385680;19;20011;-64
2022/07/16 03:49:31;;;;;;;2.10;0.40;;;;;;;18.80;64.91;101955.69;7386656;19;20023;-62
2022/07/16 03:51:58;;;;;;;0.80;0.35;;;;;;;18.78;64.89;101947.88;7386289;19;20540;-63
2022/07/16 03:54:25;;;;;;;2.10;0.50;;;;;;;18.79;64.94;101951.38;7385788;19;20682;-62
2022/07/16 03:56:52;;;;;;;3.63;0.43;;;;;;;18.78;65.04;101952.38;7386627;19;20380;-63
2022/07/16 03:59:19;;;;;;;1.35;0.30;;;;;;;18.76;64.92;101951.72;7384962;19;20019;-63
2022/07/16 04:01:46;;;;;;;1.27;0.68;;;;;;;18.73;65.36;101941.44;7385085;19;20022;-63
2022/07/16 04:04:12;;;;;;;2.38;0.40;;;;;;;18.68;65.38;101949.13;7386569;19;20033;-62
2022/07/16 04:06:39;;;;;;;3.28;0.60;;;;;;;18.61;65.48;101949.00;7385464;19;20054;-65
2022/07/16 04:09:06;;;;;;;2.15;0.40;;;;;;;18.59;65.33;101951.00;7387141;19;20010;-66
2022/07/16 04:11:33;;;;;;;1.48;0.40;;;;;;;18.55;65.69;101947.03;7382988;19;20025;-66
2022/07/16 04:14:00;;;;;;;2.20;0.50;;;;;;;18.47;66.00;101940.91;7383004;19;20085;-66
2022/07/16 04:16:27;;;;;;;2.33;0.73;;;;;;;18.39;66.70;101933.78;7384171;19;20018;-65
2022/07/16 04:18:54;;;;;;;1.63;0.40;;;;;;;18.38;66.64;101943.66;7388078;19;20424;-65
2022/07/16 04:21:21;;;;;;;1.10;0.45;;;;;;;18.37;66.76;101944.66;7383265;19;20021;-65
2022/07/16 04:23:48;;;;;;;1.27;0.30;;;;;;;18.39;66.64;101945.28;7386515;19;20028;-65
2022/07/16 04:26:20;;;;;;;1.40;0.47;;;;;;;18.41;66.52;101945.13;7383880;19;20471;-64
2022/07/16 04:28:47;;;;;;;0.88;0.47;;;;;;;18.40;66.67;101946.13;7385684;19;20018;-64
2022/07/16 04:31:14;;;;;;;1.98;0.50;;;;;;;18.41;66.63;101952.28;7385474;19;20462;-64
2022/07/16 04:33:41;;;;;;;2.05;0.60;;;;;;;18.42;66.57;101956.59;7387123;19;20018;-63
2022/07/16 04:36:08;;;;;;;3.33;0.60;;;;;;;18.44;66.48;101954.59;7382071;19;20086;-65
2022/07/16 04:38:35;;;;;;;1.98;0.50;;;;;;;18.39;67.09;101955.09;7383685;19;20036;-63
2022/07/16 04:41:02;;;;;;;2.22;0.60;;;;;;;18.34;67.09;101955.63;7385951;19;20089;-64
2022/07/16 04:43:29;;;;;;;1.23;0.60;;;;;;;18.33;67.34;101953.16;7386564;19;20025;-65
2022/07/16 04:45:56;;;;;;;2.20;0.50;;;;;;;18.28;67.15;101959.03;7384566;19;20018;-66
2022/07/16 04:48:23;;;;;;;4.07;0.70;;;;;;;18.24;67.35;101955.03;7386512;19;20025;-65
2022/07/16 04:50:50;;;;;;;2.30;0.50;;;;;;;18.17;67.71;101950.59;7385664;19;20010;-62
2022/07/16 04:53:17;;;;;;;2.75;0.82;;;;;;;18.09;68.22;101942.63;7382374;19;20594;-62
2022/07/16 04:55:44;;;;;;;8.57;0.60;;;;;;;18.06;68.53;101949.16;7384002;19;20479;-62
2022/07/16 04:58:11;;;;;;;1.25;0.50;;;;;;;18.09;68.59;101939.97;7387042;19;20048;-62
2022/07/16 05:00:38;;;;;;;2.10;0.60;;;;;;;18.10;68.27;101947.78;7382739;19;20459;-62
2022/07/16 05:03:06;;;;;;;1.75;0.60;;;;;;;18.10;68.40;101946.94;7387036;19;20021;-66
2022/07/16 05:05:36;;;;;;;1.13;0.40;;;;;;;18.10;68.44;101941.63;7381875;19;20368;-64
2022/07/16 05:08:06;;;;;;;2.42;0.50;;;;;;;18.09;68.16;101940.78;7386339;19;20363;-65
2022/07/16 05:10:33;;;;;;;1.52;0.45;;;;;;;18.04;68.50;101950.31;7383689;19;20339;-64
2022/07/16 05:13:00;;;;;;;2.60;0.52;;;;;;;18.04;68.94;101947.66;7386051;19;20021;-64
2022/07/16 05:15:29;;;;;;;3.60;0.52;;;;;;;18.02;68.83;101953.16;7384008;19;20359;-64
2022/07/16 05:17:56;;;;;;;1.98;0.50;;;;;;;18.03;69.02;101960.13;7386638;19;20090;-61
2022/07/16 05:20:23;;;;;;;1.80;0.40;;;;;;;18.06;68.78;101962.47;7384883;19;20028;-64
2022/07/16 05:22:51;;;;;;;2.25;0.40;;;;;;;18.07;68.51;101974.78;7384322;19;20014;-65
2022/07/16 05:25:17;;;;;;;2.63;0.50;;;;;;;18.09;68.62;101969.25;7383297;19;20025;-66
2022/07/16 05:27:44;;;;;;;2.40;0.50;;;;;;;18.12;68.76;101977.75;7385986;19;20367;-65
2022/07/16 05:30:11;;;;;;;2.90;0.93;;;;;;;18.16;68.49;101975.56;7381038;19;20018;-62
2022/07/16 05:32:43;;;;;;;2.50;0.50;;;;;;;18.18;68.35;101978.91;7385014;19;20174;-65
2022/07/16 05:35:15;;;;;;;1.23;0.40;;;;;;;18.25;68.22;101985.19;7383649;19;20014;-66
2022/07/16 05:37:43;;;;;;;1.38;0.35;;;;;;;18.29;67.91;101991.81;7379642;19;20019;-65
2022/07/16 05:40:12;;;;;;;1.33;0.35;;;;;;;18.31;67.82;101984.47;7384904;19;20074;-65
2022/07/16 05:42:39;;;;;;;4.50;0.50;;;;;;;18.35;67.68;101983.97;7382783;19;20076;-65
2022/07/16 05:45:15;;;;;;;2.03;0.40;;;;;;;18.38;67.48;101986.28;7382956;19;20041;-65
2022/07/16 05:47:43;;;;;;;1.58;0.50;;;;;;;18.43;67.36;101985.75;7384110;19;20111;-66
2022/07/16 05:50:11;;;;;;;0.82;0.30;;;;;;;18.48;67.12;101980.72;7382510;19;20026;-67
2022/07/16 05:52:38;;;;;;;6.45;0.60;;;;;;;18.53;67.33;101993.53;7381022;19;20017;-65
2022/07/16 05:55:05;;;;;;;1.58;0.60;;;;;;;18.53;66.69;101993.53;7381744;19;20019;-66
2022/07/16 05:57:32;;;;;;;3.20;0.50;;;;;;;18.54;66.40;101987.22;7381245;19;20517;-65
2022/07/16 05:59:59;;;;;;;2.40;0.52;;;;;;;18.47;66.58;101992.41;7382104;19;20082;-65
2022/07/16 06:02:26;;;;;;;2.88;0.40;;;;;;;18.45;67.35;101998.88;7383682;19;20031;-63
2022/07/16 06:04:53;;;;;;;0.80;0.40;;;;;;;18.44;66.91;101999.94;7383350;19;20014;-65
2022/07/16 06:07:20;;;;;;;2.05;0.70;;;;;;;18.43;66.88;101999.09;7381349;19;20783;-62
2022/07/16 06:09:46;;;;;;;3.95;0.70;;;;;;;18.47;66.87;102003.06;7389554;19;20018;-62
2022/07/16 06:12:14;;;;;;;3.17;0.57;;;;;;;18.48;66.20;102001.22;7390395;19;20027;-62
2022/07/16 06:14:41;;;;;;;2.45;0.52;;;;;;;18.53;66.58;101996.19;7389866;19;20078;-62
2022/07/16 06:17:08;;;;;;;2.88;0.43;;;;;;;18.55;66.64;101995.03;7392009;19;20086;-62
2022/07/16 06:19:46;;;;;;;3.60;0.50;;;;;;;18.61;67.16;102005.00;7390855;19;20018;-62
2022/07/16 06:22:13;;;;;;;1.48;0.50;;;;;;;18.69;68.12;101999.59;7388629;19;20021;-62
2022/07/16 06:24:40;;;;;;;4.15;0.50;;;;;;;18.76;66.63;102005.91;7390083;19;20010;-62
2022/07/16 06:27:07;;;;;;;2.58;0.60;;;;;;;18.86;66.07;102007.50;7385571;19;20019;-63
2022/07/16 06:29:34;;;;;;;1.85;0.55;;;;;;;18.93;66.22;102014.63;7390077;19;20024;-63
2022/07/16 06:32:00;;;;;;;1.67;0.50;;;;;;;19.00;66.04;102017.38;7390565;19;20377;-62
2022/07/16 06:34:27;;;;;;;1.77;0.50;;;;;;;19.04;65.15;102016.88;7388480;19;20018;-62
2022/07/16 06:36:54;;;;;;;2.05;0.50;;;;;;;19.08;65.06;102015.50;7386585;19;20090;-62
2022/07/16 06:39:21;;;;;;;2.17;0.40;;;;;;;19.11;65.69;102024.97;7387670;19;20094;-62
2022/07/16 06:41:48;;;;;;;0.88;0.50;;;;;;;19.12;65.00;102013.28;7387831;19;20026;-63
2022/07/16 06:44:15;;;;;;;2.17;0.47;;;;;;;19.12;64.73;102030.16;7384702;19;20315;-62
2022/07/16 06:46:42;;;;;;;3.05;0.50;;;;;;;19.13;65.27;102025.63;7386160;19;20026;-65
2022/07/16 06:49:09;;;;;;;1.83;0.50;;;;;;;19.17;65.10;102029.59;7386154;19;20098;-65
2022/07/16 06:51:36;;;;;;;3.10;0.75;;;;;;;19.22;64.93;102022.72;7389243;19;20074;-65
2022/07/16 06:54:02;;;;;;;2.78;0.40;;;;;;;19.24;64.78;102022.56;7389148;19;20014;-66
2022/07/16 06:56:29;;;;;;;1.63;0.52;;;;;;;19.27;64.31;102024.84;7388772;19;20022;-64
2022/07/16 06:58:56;;;;;;;1.73;0.50;;;;;;;19.32;63.96;102027.81;7386531;19;20014;-65
2022/07/16 07:01:23;;;;;;;3.58;0.50;;;;;;;19.35;64.24;102030.09;7389069;19;20011;-64
2022/07/16 07:04:05;;;;;;;2.92;0.47;;;;;;;19.39;64.00;102041.25;7388538;19;20018;-65
2022/07/16 07:06:47;;;;;;;2.72;0.60;;;;;;;19.44;63.06;102038.88;7385428;19;20014;-65
2022/07/16 07:09:14;;;;;;;1.83;0.40;;;;;;;19.44;63.42;102039.75;7388105;19;20022;-66
2022/07/16 07:11:42;;;;;;;2.95;1.10;;;;;;;19.46;63.54;102037.72;7387191;19;20086;-65
2022/07/16 07:14:09;;;;;;;1.35;0.38;;;;;;;19.50;63.42;102049.72;7385851;19;20138;-65
2022/07/16 07:16:37;;;;;;;2.78;0.88;;;;;;;19.54;63.23;102042.16;7385644;19;20019;-65
2022/07/16 07:19:04;;;;;;;2.85;0.70;;;;;;;19.58;63.52;102041.63;7388138;19;20014;-65
2022/07/16 07:21:31;;;;;;;3.97;0.65;;;;;;;19.61;63.45;102040.41;7386005;19;20082;-66
2022/07/16 07:23:58;;;;;;;1.80;0.50;;;;;;;19.65;62.72;102047.06;7387699;19;20030;-65
2022/07/16 07:26:26;;;;;;;3.45;0.73;;;;;;;19.66;62.39;102051.38;7386357;19;20433;-65
2022/07/16 07:28:53;;;;;;;2.78;0.73;;;;;;;19.69;62.25;102056.38;7387439;19;20022;-66
2022/07/16 07:31:20;;;;;;;1.42;0.60;;;;;;;19.73;61.86;102051.47;7386490;19;20355;-66
2022/07/16 07:33:48;;;;;;;1.67;0.70;;;;;;;19.74;62.58;102058.50;7387460;19;20029;-64
2022/07/16 07:36:15;;;;;;;1.90;0.70;;;;;;;19.76;62.18;102059.94;7383091;19;20017;-65
2022/07/16 07:38:41;;;;;;;2.10;0.52;;;;;;;19.79;61.95;102059.59;7384741;19;20014;-65
2022/07/16 07:41:09;;;;;;;2.42;0.60;;;;;;;19.83;61.68;102060.88;7385465;19;20412;-64
2022/07/16 07:43:36;;;;;;;3.67;0.60;;;;;;;19.88;61.61;102063.84;7385100;19;20633;-65
2022/07/16 07:46:03;;;;;;;4.47;0.50;;;;;;;19.90;61.68;102061.81;7385360;19;20017;-65
2022/07/16 07:48:29;;;;;;;1.60;0.60;;;;;;;19.98;62.09;102060.91;7388648;19;20368;-64
2022/07/16 07:50:56;;;;;;;2.80;0.93;;;;;;;20.11;62.68;102065.59;7384385;19;20475;-65
2022/07/16 07:53:23;;;;;;;2.40;0.57;;;;;;;20.25;61.95;102056.75;7384949;19;20016;-65
2022/07/16 07:56:02;;;;;;;4.13;0.80;;;;;;;20.42;60.62;102058.22;7385657;19;20035;-65
2022/07/16 07:58:29;;;;;;;3.53;0.60;;;;;;;20.52;60.55;102064.09;7386098;19;20014;-65
2022/07/16 08:00:56;;;;;;;2.10;0.60;;;;;;;20.63;59.94;102068.97;7385301;19;20030;-65
2022/07/16 08:03:43;;;;;;;4.35;0.60;;;;;;;20.74;59.43;102071.16;7383693;19;20106;-65
2022/07/16 08:06:10;;;;;;;4.45;0.50;;;;;;;20.82;59.16;102076.41;7384613;19;20407;-63
2022/07/16 08:08:37;;;;;;;3.97;0.50;;;;;;;20.83;60.27;102071.88;7385889;19;20019;-62
2022/07/16 08:11:04;;;;;;;2.97;0.60;;;;;;;20.83;59.41;102079.88;7385227;19;20022;-65
2022/07/16 08:13:31;;;;;;;2.53;0.52;;;;;;;20.83;59.02;102079.88;7386752;19;20024;-65
2022/07/16 08:16:07;;;;;;;1.98;0.50;;;;;;;20.82;58.85;102071.06;7381518;19;20326;-65
2022/07/16 08:18:36;;;;;;;3.70;0.40;;;;;;;20.85;58.82;102077.88;7387218;19;20018;-65
2022/07/16 08:21:03;;;;;;;2.75;0.40;;;;;;;20.84;58.77;102063.66;7383359;19;20425;-65
2022/07/16 08:25:44;;;;;;;4.20;0.40;;;;;;;20.87;58.67;102079.34;7384008;19;20421;-66
2022/07/16 08:26:32;;;;;;;3.53;0.40;;;;;;;20.90;59.30;102059.41;7384493;19;20447;-65
2022/07/16 08:28:59;;;;;;;1.67;0.40;;;;;;;20.93;59.02;102067.84;7383483;19;20018;-61
2022/07/16 08:31:26;;;;;;;2.05;0.45;;;;;;;20.98;58.70;102064.59;7383220;19;20466;-63
2022/07/16 08:33:53;;;;;;;8.90;0.55;;;;;;;21.02;58.47;102070.44;7385428;19;20010;-62
2022/07/16 08:36:20;;;;;;;1.40;0.40;;;;;;;21.07;58.92;102057.31;7380241;19;20458;-65
2022/07/16 08:38:47;;;;;;;2.38;0.40;;;;;;;21.10;58.32;102071.13;7382212;19;20015;-66
2022/07/16 08:41:15;;;;;;;3.38;0.73;;;;;;;21.13;58.01;102070.72;7384272;19;20014;-66
2022/07/16 08:43:42;;;;;;;2.25;0.85;;;;;;;21.16;57.84;102066.88;7383202;19;20023;-66
2022/07/16 08:46:20;;;;;;;0.95;0.40;;;;;;;21.20;58.55;102069.00;7383211;19;20384;-65
2022/07/16 08:48:54;;;;;;;1.13;0.28;;;;;;;21.20;57.60;102063.63;7385187;19;20007;-66
2022/07/16 08:51:31;;;;;;;7.35;0.60;;;;;;;21.23;57.51;102068.59;7382309;19;20418;-66
2022/07/16 08:54:09;;;;;;;5.18;0.50;;;;;;;21.26;56.76;102070.06;7383776;19;20010;-65
2022/07/16 08:56:36;;;;;;;3.63;0.30;;;;;;;21.28;56.90;102068.03;7383131;19;20090;-63
2022/07/16 08:59:05;;;;;;;3.30;0.50;;;;;;;21.29;56.72;102073.19;7382540;19;20039;-62
2022/07/16 09:01:33;;;;;;;2.78;0.30;;;;;;;21.34;56.92;102081.47;7380281;19;20010;-65
2022/07/16 09:04:02;;;;;;;6.82;0.50;;;;;;;21.40;57.22;102073.69;7384308;19;20015;-66
2022/07/16 09:06:29;;;;;;;10.38;1.10;;;;;;;21.42;56.58;102069.81;7383046;19;20022;-65
2022/07/16 09:08:56;;;;;;;6.80;0.57;;;;;;;21.48;56.72;102076.25;7382349;19;20025;-65
2022/07/16 09:11:26;;;;;;;38.85;3.03;;;;;;;21.51;56.56;102071.31;7382885;19;20034;-66
2022/07/16 09:14:00;;;;;;;11.75;0.75;;;;;;;21.55;56.68;102075.25;7382393;19;20042;-67
2022/07/16 09:16:40;;;;;;;16.42;6.43;;;;;;;21.65;56.55;102070.38;7383880;19;20014;-65
2022/07/16 09:19:13;;;;;;;19.95;5.22;;;;;;;21.68;56.29;102067.34;7381800;19;20024;-65
2022/07/16 09:21:58;;;;;;;4.97;0.73;;;;;;;21.76;57.31;102075.22;7384234;19;20042;-65
2022/07/16 09:24:31;;;;;;;1.60;0.38;;;;;;;21.82;57.46;102070.09;7381578;19;20579;-66
2022/07/16 09:27:03;;;;;;;3.60;0.50;;;;;;;21.91;56.54;102075.09;7382680;19;20018;-66
2022/07/16 09:29:33;;;;;;;5.10;0.50;;;;;;;22.02;56.51;102079.13;7383452;19;20034;-65
2022/07/16 09:32:01;;;;;;;1.88;0.40;;;;;;;22.15;56.19;102080.03;7382612;19;20014;-66
2022/07/16 09:34:29;;;;;;;3.15;0.40;;;;;;;22.23;54.92;102076.34;7381648;19;20015;-68
2022/07/16 09:36:58;;;;;;;4.15;0.47;;;;;;;22.33;54.95;102071.47;7381864;19;20028;-65
2022/07/16 09:39:28;;;;;;;3.50;0.50;;;;;;;22.46;54.05;102078.72;7382692;19;20484;-66
2022/07/16 09:41:55;;;;;;;2.85;0.70;;;;;;;22.56;53.97;102076.50;7382129;19;20415;-65
2022/07/16 09:44:33;;;;;;;3.35;0.70;;;;;;;22.61;53.49;102072.19;7387446;19;20158;-66
2022/07/16 09:47:03;;;;;;;2.20;0.68;;;;;;;22.69;53.80;102070.34;7389141;19;20013;-65
2022/07/16 09:49:36;;;;;;;2.78;1.42;;;;;;;22.78;53.56;102080.72;7392103;19;20041;-66
2022/07/16 09:52:05;;;;;;;3.25;0.40;;;;;;;22.84;52.76;102076.41;7387413;19;20547;-65
2022/07/16 09:54:37;;;;;;;3.03;0.43;;;;;;;22.93;52.75;102078.72;7390310;19;20019;-66
2022/07/16 09:57:18;;;;;;;2.30;0.50;;;;;;;22.98;52.68;102088.84;7389974;19;20014;-65
2022/07/16 09:59:47;;;;;;;3.90;0.40;;;;;;;23.03;53.22;102087.19;7387128;19;20015;-66
2022/07/16 10:02:30;;;;;;;1.40;0.43;;;;;;;23.12;51.91;102087.00;7387348;19;20038;-66
2022/07/16 10:04:58;;;;;;;3.25;0.75;;;;;;;23.22;50.95;102082.88;7388822;19;20052;-66
2022/07/16 10:07:33;;;;;;;4.65;0.52;;;;;;;23.28;50.93;102079.38;7390933;19;20026;-65
2022/07/16 10:10:00;;;;;;;2.55;0.40;;;;;;;23.37;50.06;102077.31;7390054;19;20094;-65
2022/07/16 10:12:29;;;;;;;2.45;0.40;;;;;;;23.40;50.94;102082.28;7389955;19;20018;-66
2022/07/16 10:14:58;;;;;;;1.30;0.40;;;;;;;23.44;50.97;102081.66;7390078;19;20016;-65
2022/07/16 10:17:37;;;;;;;3.53;0.68;;;;;;;23.43;50.29;102079.16;7390384;19;20037;-62
2022/07/16 10:20:09;;;;;;;2.92;0.40;;;;;;;23.52;51.09;102091.38;7390258;19;20086;-65
2022/07/16 10:22:45;;;;;;;2.58;0.50;;;;;;;23.59;49.93;102084.16;7389513;19;20451;-65
2022/07/16 10:25:19;;;;;;;1.05;0.60;;;;;;;23.67;50.34;102080.44;7389175;19;20542;-63
2022/07/16 10:27:46;;;;;;;1.10;0.30;;;;;;;23.71;50.14;102081.69;7389300;19;20082;-63
2022/07/16 10:30:18;;;;;;;2.45;0.45;;;;;;;23.76;50.45;102082.72;7388634;19;20437;-62
2022/07/16 10:33:05;;;;;;;;;;;;;;;23.80;49.73;102081.25;7391156;19;20082;-63
2022/07/16 10:35:49;;;;;;;3.85;0.57;;;;;;;23.89;49.62;102073.78;7388207;19;20587;-65
2022/07/16 10:38:24;;;;;;;2.10;0.40;;;;;;;23.99;50.67;102078.72;7386707;19;20352;-61
2022/07/16 10:41:20;;;;;;;1.30;0.40;;;;;;;24.04;49.42;102087.81;7386865;19;20010;-62
2022/07/16 10:44:12;;;;;;;6.78;0.40;;;;;;;24.05;48.76;102081.41;7384943;19;20050;-62
2022/07/16 10:46:58;;;;;;;1.98;0.40;;;;;;;24.09;48.25;102082.63;7385269;19;20014;-61
2022/07/16 10:49:27;;;;;;;5.40;0.45;;;;;;;24.14;48.97;102082.81;7386956;19;20035;-61
2022/07/16 10:51:59;;;;;;;1.02;0.40;;;;;;;24.15;48.71;102087.16;7385481;19;20014;-62
2022/07/16 10:54:30;;;;;;;1.38;0.30;;;;;;;24.12;48.68;102082.22;7384409;19;20039;-62
2022/07/16 10:57:01;;;;;;;2.97;0.63;;;;;;;24.16;48.98;102075.38;7384466;19;20447;-62
2022/07/16 10:59:31;;;;;;;1.70;0.50;;;;;;;24.22;48.94;102077.25;7384605;19;20013;-62
2022/07/16 11:02:02;;;;;;;6.53;0.80;;;;;;;24.25;48.30;102074.13;7384754;19;20006;-62
2022/07/16 11:04:31;;;;;;;3.85;0.40;;;;;;;24.29;47.87;102074.53;7382104;19;20021;-63
2022/07/16 11:07:00;;;;;;;9.73;0.60;;;;;;;24.27;48.14;102076.63;7382610;19;20359;-62
2022/07/16 11:09:33;;;;;;;3.05;0.40;;;;;;;24.24;48.07;102075.16;7384921;19;20379;-62
2022/07/16 11:12:16;;;;;;;2.40;0.50;;;;;;;24.26;47.29;102080.34;7385520;19;20417;-62
2022/07/16 11:14:48;;;;;;;1.13;0.30;;;;;;;24.27;48.47;102069.38;7383501;19;20015;-63
2022/07/16 11:17:17;;;;;;;2.25;0.50;;;;;;;24.32;48.85;102075.97;7385226;19;20035;-63
2022/07/16 11:19:49;;;;;;;1.70;0.30;;;;;;;24.38;48.01;102069.75;7387045;19;20014;-63
2022/07/16 11:22:17;;;;;;;;;;;;;;;24.46;47.54;102074.88;7383920;19;20031;-63
2022/07/16 11:24:49;;;;;;;2.95;0.52;;;;;;;24.49;47.36;102067.19;7384789;19;20568;-64
2022/07/16 11:27:16;;;;;;;1.65;0.50;;;;;;;24.55;47.61;102071.72;7382903;19;20033;-63
2022/07/16 11:29:44;;;;;;;1.98;0.40;;;;;;;24.61;47.19;102070.88;7385149;19;20007;-62
2022/07/16 11:32:17;;;;;;;2.35;0.47;;;;;;;24.65;47.19;102076.66;7381584;19;20403;-64
2022/07/16 11:34:43;;;;;;;2.47;0.50;;;;;;;24.66;47.38;102068.38;7385675;19;20078;-63